EST,Max TemperatureF,Mean TemperatureF,Min TemperatureF,Max Dew PointF,MeanDew PointF,Min DewpointF,Max Humidity, Mean Humidity, Min Humidity, Max Sea Level PressureIn, Mean Sea Level PressureIn, Min Sea Level PressureIn, Max VisibilityMiles, Mean VisibilityMiles, Min VisibilityMiles, Max Wind SpeedMPH, Mean Wind SpeedMPH, Max Gust SpeedMPH,PrecipitationIn, CloudCover, Events, WindDirDegrees
2013-12-1,36,29,21,28,23,18,84,73,61,30.37,30.20,30.05,10,8,5,7,1,9,0.00,5,,323
2013-12-2,44,39,34,32,30,28,82,72,62,30.04,29.96,29.91,8,6,4,7,3,8,0.00,7,,322
2013-12-3,50,43,35,36,33,30,89,73,56,30.01,29.97,29.92,6,4,3,7,2,9,T,4,,344
2013-12-4,55,44,32,45,37,30,96,79,61,30.13,30.06,30.00,6,4,2,12,2,13,0.00,1,,357
2013-12-5,65,56,46,55,50,45,100,84,67,30.08,30.00,29.91,10,4,0,16,5,19,0.00,6,Fog-Rain,194
2013-12-6,56,48,40,55,42,33,100,93,86,30.22,30.05,29.88,10,5,0,20,8,25,0.55,8,Fog-Rain,330
2013-12-7,38,36,33,34,27,18,92,76,59,30.59,30.39,30.18,10,9,3,22,11,26,T,5,,325
2013-12-8,27,25,23,27,22,15,88,76,63,30.61,30.45,30.29,10,4,0,9,4,11,0.36,7,Fog-Rain-Snow,46
2013-12-9,33,31,28,34,29,26,100,96,92,30.32,30.12,30.02,10,3,0,10,4,11,0.10,8,Fog-Rain,309
2013-12-10,37,34,31,31,26,12,100,78,56,30.25,30.06,29.98,10,5,0,26,6,33,0.12,6,Fog-Snow,258
2013-12-11,35,28,21,19,13,10,62,49,35,30.42,30.33,30.26,10,10,10,15,7,21,0.00,1,,228
2013-12-12,32,26,20,19,7,0,69,51,32,30.46,30.36,30.26,10,10,10,23,11,28,0.00,1,,277
2013-12-13,38,29,19,17,11,5,56,47,37,30.33,30.28,30.24,10,10,10,17,9,23,0.00,0,,217
2013-12-14,34,32,30,32,28,17,100,77,53,30.35,30.10,29.79,10,3,0,13,3,15,0.14,8,Fog-Rain-Snow,49
2013-12-15,39,33,27,32,26,19,100,78,56,29.96,29.77,29.64,10,6,2,30,11,35,T,8,,263
2013-12-16,33,29,25,22,18,14,75,67,58,30.21,30.14,29.97,10,10,6,26,8,31,T,8,,18
2013-12-17,31,28,25,27,25,21,92,84,75,30.16,30.03,29.93,5,2,1,9,4,11,0.02,7,Snow,342
2013-12-18,35,29,22,22,19,16,96,74,52,30.25,30.17,30.00,10,9,2,20,9,22,0.00,5,,254
2013-12-19,50,37,23,28,23,17,74,57,39,30.19,30.14,30.08,10,10,10,10,4,15,0.00,0,,188
2013-12-20,52,44,35,32,29,27,75,57,39,30.11,30.05,29.99,10,10,9,16,8,21,0.00,4,,190
2013-12-21,64,57,49,56,43,34,63,56,48,30.00,29.95,29.87,10,10,9,15,10,19,0.00,2,Rain,182
2013-12-22,69,65,61,60,57,54,93,80,67,29.99,29.90,29.78,10,10,6,25,17,32,0.09,4,Rain,188
2013-12-23,60,52,44,57,48,22,100,83,65,30.28,30.03,29.93,10,6,0,26,11,33,0.39,7,Fog-Rain,281
2013-12-24,35,32,28,26,17,5,75,59,43,30.51,30.32,30.21,10,9,1,26,9,33,T,4,Snow,304
2013-12-25,28,22,15,12,9,7,73,56,39,30.61,30.51,30.37,10,10,10,18,5,22,0.00,0,,208
2013-12-26,41,33,25,22,16,13,63,52,40,30.38,30.30,30.25,10,10,10,22,9,27,T,4,,214
2013-12-27,50,38,25,18,15,10,68,45,21,30.43,30.38,30.32,10,10,10,22,6,27,0.00,1,,211
2013-12-28,57,44,30,25,22,18,59,42,24,30.34,30.24,30.12,10,10,10,13,8,16,0.00,0,,182
2013-12-29,48,44,39,42,38,23,100,69,38,30.11,29.77,29.58,10,6,1,14,8,19,0.88,7,Rain,336
2013-12-30,46,40,33,39,26,15,76,66,56,30.22,30.08,29.84,10,10,8,23,12,28,0.01,7,Rain,309
2013-12-31,37,32,26,22,16,13,69,57,44,30.35,30.22,30.13,10,10,10,32,11,38,0.00,4,,248